Time;durP1;ratioP1;P1;durP2;ratioP2;P2;SDS_P1;SDS_P2;PMS_P1;PMS_P2;Temp;Humidity;BMP_temperature;BMP_pressure;BME280_temperature;BME280_humidity;BME280_pressure;Samples;Min_cycle;Max_cycle;Signal;HPM_P1;HPM_P2
2021/10/22 00:00:18;;;;;;;20.70;1.88;;;;;;;8.62;66.01;99470.78;5055921;28;20037;-71
2021/10/22 00:02:44;;;;;;;13.55;1.90;;;;;;;8.65;65.82;99470.31;5052398;28;20087;-71
2021/10/22 00:05:10;;;;;;;13.18;1.85;;;;;;;8.75;65.38;99470.53;5065891;28;20067;-71
2021/10/22 00:07:36;;;;;;;10.13;1.52;;;;;;;8.83;65.34;99474.69;5063634;28;20033;-71
2021/10/22 00:10:04;;;;;;;8.65;1.27;;;;;;;8.77;65.89;99465.75;5051086;28;20573;-71
2021/10/22 00:12:29;;;;;;;22.17;2.15;;;;;;;8.68;66.11;99474.38;5052152;28;20396;-71
2021/10/22 00:14:55;;;;;;;9.52;1.80;;;;;;;8.79;66.23;99465.50;5069005;28;20107;-72
2021/10/22 00:17:21;;;;;;;11.40;1.80;;;;;;;8.66;66.37;99471.97;5062131;28;20527;-72
2021/10/22 00:19:47;;;;;;;12.63;1.52;;;;;;;8.86;65.56;99449.25;5066228;28;20029;-72
2021/10/22 00:22:13;;;;;;;12.73;2.15;;;;;;;8.72;65.41;99454.06;5061881;28;20127;-72
2021/10/22 00:24:40;;;;;;;15.35;2.10;;;;;;;8.46;66.43;99456.19;5065621;28;20029;-72
2021/10/22 00:27:06;;;;;;;13.32;1.80;;;;;;;8.69;65.55;99460.75;5055738;28;20540;-72
2021/10/22 00:29:32;;;;;;;9.70;1.50;;;;;;;8.66;65.79;99450.47;5065649;28;20131;-72
2021/10/22 00:31:57;;;;;;;12.90;1.67;;;;;;;8.44;66.61;99459.13;5059795;28;20113;-72
2021/10/22 00:34:24;;;;;;;11.48;1.70;;;;;;;8.40;66.60;99462.50;5068612;28;20508;-72
2021/10/22 00:36:50;;;;;;;13.30;1.60;;;;;;;8.32;66.78;99453.75;5067120;28;20044;-72
2021/10/22 00:39:15;;;;;;;9.65;1.60;;;;;;;8.17;67.55;99454.25;5066736;28;20650;-72
2021/10/22 00:41:41;;;;;;;14.40;1.67;;;;;;;8.30;66.22;99452.38;5063892;28;20040;-72
2021/10/22 00:44:07;;;;;;;18.20;2.28;;;;;;;8.46;65.69;99454.34;5066446;28;20040;-71
2021/10/22 00:46:37;;;;;;;21.30;2.15;;;;;;;8.61;66.83;99440.44;5064437;28;20032;-71
2021/10/22 00:49:07;;;;;;;15.25;1.77;;;;;;;8.65;65.85;99446.16;5057606;28;20052;-71
2021/10/22 00:51:34;;;;;;;9.38;1.40;;;;;;;8.74;65.89;99446.59;5062244;28;20122;-71
2021/10/22 00:54:00;;;;;;;10.98;1.40;;;;;;;8.87;64.98;99435.59;5054802;28;21444;-72
2021/10/22 00:56:26;;;;;;;11.77;2.00;;;;;;;8.94;65.43;99435.44;5056827;28;20607;-72
2021/10/22 00:58:54;;;;;;;9.65;1.55;;;;;;;8.93;65.10;99436.50;5068330;28;20032;-71
2021/10/22 01:01:19;;;;;;;18.70;1.80;;;;;;;8.97;65.23;99428.81;5056310;28;20080;-71
2021/10/22 01:03:45;;;;;;;28.08;3.08;;;;;;;8.90;64.81;99423.56;5058717;28;20481;-71
2021/10/22 01:06:11;;;;;;;8.05;1.70;;;;;;;8.99;64.46;99426.69;5052778;28;20048;-71
2021/10/22 01:08:37;;;;;;;14.80;1.92;;;;;;;8.93;64.89;99417.69;5053317;28;20033;-71
2021/10/22 01:11:03;;;;;;;14.52;1.80;;;;;;;8.89;64.98;99421.91;5051590;28;20094;-71
2021/10/22 01:13:30;;;;;;;13.13;2.15;;;;;;;8.88;65.14;99413.06;5063867;28;20029;-71
2021/10/22 01:15:56;;;;;;;11.75;1.63;;;;;;;9.01;64.37;99420.00;5049001;28;20025;-71
2021/10/22 01:18:25;;;;;;;12.98;1.70;;;;;;;9.16;64.20;99413.28;5058062;28;20033;-71
2021/10/22 01:21:01;;;;;;;15.57;1.63;;;;;;;9.02;64.10;99410.09;5053407;28;20090;-72
2021/10/22 01:23:26;;;;;;;13.27;1.95;;;;;;;9.38;63.55;99413.41;5056772;28;20616;-72
2021/10/22 01:25:52;;;;;;;23.02;2.25;;;;;;;9.36;64.07;99407.47;5042235;28;20048;-72
2021/10/22 01:28:19;;;;;;;14.05;2.17;;;;;;;9.27;64.12;99409.72;5055069;28;20547;-72
2021/10/22 01:30:46;;;;;;;14.50;2.33;;;;;;;9.36;64.07;99410.94;5053682;28;20037;-72
2021/10/22 01:33:12;;;;;;;17.13;2.30;;;;;;;9.45;64.70;99403.31;5051935;28;20040;-72
2021/10/22 01:35:37;;;;;;;17.90;1.65;;;;;;;9.41;64.35;99407.56;5048064;28;20036;-72
2021/10/22 01:38:04;;;;;;;13.38;2.03;;;;;;;9.51;63.99;99407.72;5060858;28;20090;-72
2021/10/22 01:40:30;;;;;;;22.45;2.10;;;;;;;9.26;64.68;99405.41;5054142;28;20101;-71
2021/10/22 01:42:56;;;;;;;23.58;2.22;;;;;;;9.33;63.79;99418.69;5053989;28;20475;-71
2021/10/22 01:45:21;;;;;;;15.32;2.33;;;;;;;9.34;64.29;99418.44;5068198;28;20691;-71
2021/10/22 01:47:48;;;;;;;14.35;2.25;;;;;;;9.31;63.39;99421.63;5049333;28;20032;-72
2021/10/22 01:50:14;;;;;;;17.25;1.65;;;;;;;9.56;62.68;99420.41;5046387;28;20086;-71
2021/10/22 01:52:40;;;;;;;11.07;1.80;;;;;;;9.64;62.77;99424.59;5053037;28;20039;-72
2021/10/22 01:55:07;;;;;;;19.10;2.03;;;;;;;9.55;62.66;99417.97;5059766;28;20020;-71
2021/10/22 01:57:33;;;;;;;21.65;2.60;;;;;;;9.69;62.21;99413.91;5048290;28;20107;-71
2021/10/22 01:59:58;;;;;;;14.40;1.85;;;;;;;9.46;63.12;99414.88;5063632;28;20037;-71
2021/10/22 02:02:24;;;;;;;12.65;1.90;;;;;;;9.79;62.27;99405.19;5052965;28;20486;-71
2021/10/22 02:04:50;;;;;;;21.95;2.13;;;;;;;9.78;62.34;99409.75;5056603;28;20155;-72
2021/10/22 02:07:16;;;;;;;13.32;1.80;;;;;;;9.93;62.39;99405.66;5069569;28;20486;-72
2021/10/22 02:09:42;;;;;;;12.40;1.80;;;;;;;9.78;62.16;99406.25;5052925;28;20033;-72
2021/10/22 02:12:08;;;;;;;23.17;2.80;;;;;;;9.75;62.47;99401.38;5058486;28;20091;-72
2021/10/22 02:14:33;;;;;;;13.65;1.67;;;;;;;9.68;62.37;99390.78;5052702;28;20592;-72
2021/10/22 02:16:59;;;;;;;17.13;2.78;;;;;;;9.58;63.21;99396.00;5067134;28;20044;-72
2021/10/22 02:19:25;;;;;;;14.68;2.15;;;;;;;9.73;62.24;99390.84;5070425;28;20040;-72
2021/10/22 02:21:50;;;;;;;15.88;2.10;;;;;;;9.83;62.46;99411.72;5057815;28;20036;-72
2021/10/22 02:24:16;;;;;;;12.73;2.10;;;;;;;9.56;62.81;99403.47;5055579;28;20066;-72
2021/10/22 02:26:41;;;;;;;7.13;1.30;;;;;;;9.45;62.57;99400.63;5056563;28;20033;-72
2021/10/22 02:29:07;;;;;;;15.98;1.80;;;;;;;9.74;62.12;99408.63;5051236;28;20060;-72
2021/10/22 02:31:33;;;;;;;18.17;1.92;;;;;;;9.61;61.93;99390.13;5056673;28;20431;-72
2021/10/22 02:33:58;;;;;;;13.00;1.77;;;;;;;9.60;63.21;99396.56;5048902;28;20224;-72
2021/10/22 02:36:24;;;;;;;19.85;2.03;;;;;;;9.49;63.03;99388.31;5069708;28;20043;-72
2021/10/22 02:38:50;;;;;;;21.25;2.40;;;;;;;9.22;64.03;99398.88;5031260;28;20033;-71
2021/10/22 02:41:15;;;;;;;13.48;1.90;;;;;;;9.33;63.94;99405.25;5060287;28;20029;-71
2021/10/22 02:43:41;;;;;;;16.35;1.50;;;;;;;9.29;63.40;99396.06;5069141;28;20036;-72
2021/10/22 02:46:07;;;;;;;14.70;1.80;;;;;;;9.39;62.86;99390.84;5063527;28;20036;-71
2021/10/22 02:48:33;;;;;;;15.70;2.28;;;;;;;9.58;63.66;99387.91;5064153;28;20025;-71
2021/10/22 02:50:59;;;;;;;12.75;2.25;;;;;;;9.46;64.38;99396.06;5067373;28;20035;-72
2021/10/22 02:53:24;;;;;;;18.33;2.35;;;;;;;9.60;63.22;99402.72;5064506;28;21086;-72
2021/10/22 02:55:50;;;;;;;10.65;1.70;;;;;;;9.50;63.49;99398.03;5060549;28;20032;-71
2021/10/22 02:58:15;;;;;;;10.85;1.55;;;;;;;9.60;63.48;99386.59;5053641;28;20063;-71
2021/10/22 03:00:41;;;;;;;14.82;2.00;;;;;;;9.63;63.87;99390.69;5051609;28;20035;-71
2021/10/22 03:03:06;;;;;;;13.13;2.70;;;;;;;9.57;64.48;99383.59;5055010;28;20067;-71
2021/10/22 03:05:33;;;;;;;12.48;1.90;;;;;;;9.42;65.61;99386.84;5042440;28;20505;-71
2021/10/22 03:07:59;;;;;;;19.33;1.67;;;;;;;9.52;64.90;99377.09;5053686;28;20594;-72
2021/10/22 03:10:26;;;;;;;9.50;1.75;;;;;;;9.63;64.69;99374.56;5056594;28;20562;-71
2021/10/22 03:12:52;;;;;;;10.48;1.70;;;;;;;9.40;66.14;99370.97;5062074;28;20117;-71
2021/10/22 03:15:18;;;;;;;12.18;1.58;;;;;;;9.41;66.41;99374.47;5038372;28;20127;-71
2021/10/22 03:17:44;;;;;;;12.80;1.58;;;;;;;9.33;66.52;99376.50;5061562;28;20040;-71
2021/10/22 03:20:10;;;;;;;19.40;1.85;;;;;;;9.37;67.17;99369.56;5040643;28;20040;-71
2021/10/22 03:22:37;;;;;;;19.70;2.22;;;;;;;9.50;67.02;99378.38;5055866;28;20466;-71
2021/10/22 03:25:04;;;;;;;12.60;1.58;;;;;;;9.49;66.95;99385.63;5065772;28;20124;-71
2021/10/22 03:27:31;;;;;;;9.60;1.48;;;;;;;9.50;66.61;99381.06;5062183;28;20033;-71
2021/10/22 03:29:57;;;;;;;10.77;1.92;;;;;;;9.45;67.17;99383.66;5070099;28;20135;-71
2021/10/22 03:32:23;;;;;;;10.98;1.75;;;;;;;9.47;66.76;99371.63;5050758;28;20198;-71
2021/10/22 03:34:48;;;;;;;9.98;1.77;;;;;;;9.54;66.78;99373.34;5071804;28;20033;-71
2021/10/22 03:37:14;;;;;;;16.67;2.10;;;;;;;9.55;67.35;99374.97;5052238;28;20500;-73
2021/10/22 03:39:41;;;;;;;14.43;1.90;;;;;;;9.67;67.31;99371.13;5049681;28;20055;-71
2021/10/22 03:42:07;;;;;;;13.20;1.20;;;;;;;9.66;67.05;99371.38;5060833;28;20021;-72
2021/10/22 03:44:33;;;;;;;7.47;1.48;;;;;;;9.73;66.63;99374.72;5039187;28;20383;-71
2021/10/22 03:46:59;;;;;;;17.48;1.55;;;;;;;9.82;66.78;99370.53;5070247;28;20028;-71
2021/10/22 03:49:24;;;;;;;13.45;1.50;;;;;;;9.77;67.34;99372.34;5047242;28;20040;-71
2021/10/22 03:51:51;;;;;;;18.08;1.67;;;;;;;9.91;66.93;99370.94;5058343;28;20040;-72
2021/10/22 03:54:16;;;;;;;9.27;1.38;;;;;;;9.85;67.45;99365.72;5046083;28;20287;-72
2021/10/22 03:56:42;;;;;;;15.13;2.45;;;;;;;9.72;67.47;99380.31;5055950;28;20033;-72
2021/10/22 03:59:07;;;;;;;18.17;1.60;;;;;;;9.66;68.42;99377.56;5068946;28;20031;-72
2021/10/22 04:01:33;;;;;;;9.05;1.50;;;;;;;9.56;69.07;99384.66;5060578;28;20533;-72
2021/10/22 04:03:59;;;;;;;17.60;1.80;;;;;;;9.42;69.29;99371.53;5058168;28;20036;-72
2021/10/22 04:06:24;;;;;;;13.70;2.15;;;;;;;9.63;69.14;99367.28;5046536;28;20124;-71
2021/10/22 04:08:50;;;;;;;14.05;1.85;;;;;;;9.43;70.30;99362.44;5058752;28;20044;-72
2021/10/22 04:11:15;;;;;;;7.40;1.20;;;;;;;9.49;70.34;99363.31;5071372;28;20037;-70
2021/10/22 04:13:41;;;;;;;11.90;2.20;;;;;;;9.48;70.51;99359.81;5057005;28;20032;-72
2021/10/22 04:16:07;;;;;;;7.82;1.48;;;;;;;9.46;71.18;99367.31;5060855;28;20333;-72
2021/10/22 04:18:35;;;;;;;10.95;1.88;;;;;;;9.38;71.95;99356.97;5062818;28;20033;-72
2021/10/22 04:21:01;;;;;;;15.50;2.47;;;;;;;9.33;72.35;99362.25;5062440;28;20028;-72
2021/10/22 04:23:27;;;;;;;11.27;1.88;;;;;;;9.29;72.26;99361.13;5062111;28;20047;-72
2021/10/22 04:25:54;;;;;;;13.63;2.05;;;;;;;9.41;72.52;99355.66;5051821;28;20033;-72
2021/10/22 04:28:20;;;;;;;8.15;1.60;;;;;;;9.38;73.35;99352.38;4719016;28;9999814;-72
2021/10/22 04:30:46;;;;;;;16.83;2.40;;;;;;;9.31;74.02;99350.94;5052342;28;20056;-72
2021/10/22 04:33:12;;;;;;;10.75;1.88;;;;;;;9.30;73.03;99360.06;5064364;28;20068;-72
2021/10/22 04:35:38;;;;;;;15.32;2.00;;;;;;;9.30;73.11;99352.78;5073656;28;20074;-71
2021/10/22 04:40:45;;;;;;;8.77;1.55;;;;;;;9.33;72.58;99356.88;5058727;28;20131;-72
2021/10/22 04:43:16;;;;;;;12.18;1.92;;;;;;;9.29;72.94;99345.78;5067009;28;20482;-72
2021/10/22 04:45:44;;;;;;;12.80;2.38;;;;;;;9.39;72.70;99361.28;5061429;28;20025;-72
2021/10/22 04:48:12;;;;;;;12.25;2.90;;;;;;;9.37;72.24;99347.28;5072297;28;20036;-71
2021/10/22 04:50:46;;;;;;;14.82;1.92;;;;;;;9.50;73.00;99341.56;5059584;28;20033;-72
2021/10/22 04:53:12;;;;;;;16.65;2.28;;;;;;;9.64;71.25;99352.78;5056889;28;20128;-72
2021/10/22 04:55:38;;;;;;;11.23;2.03;;;;;;;9.77;71.77;99353.53;5057231;28;20036;-72
2021/10/22 04:58:08;;;;;;;16.48;2.42;;;;;;;9.64;71.53;99344.72;5055767;28;20478;-71
2021/10/22 05:00:34;;;;;;;12.02;2.08;;;;;;;9.66;72.77;99347.19;5070975;28;20060;-72
2021/10/22 05:03:00;;;;;;;10.00;1.40;;;;;;;9.63;72.69;99335.03;5038540;28;20128;-72
2021/10/22 05:05:25;;;;;;;7.15;1.63;;;;;;;9.61;72.34;99345.22;5061473;28;20564;-72
2021/10/22 05:07:51;;;;;;;14.32;2.08;;;;;;;9.48;72.75;99354.44;5071550;28;20078;-72
2021/10/22 05:10:16;;;;;;;8.82;1.30;;;;;;;9.38;73.79;99344.31;5051803;28;20036;-72
2021/10/22 05:12:42;;;;;;;18.02;1.98;;;;;;;9.60;72.96;99358.91;5059398;28;20032;-71
2021/10/22 05:15:10;;;;;;;11.35;2.50;;;;;;;9.49;73.73;99350.69;5056901;28;20035;-72
2021/10/22 05:17:36;;;;;;;17.20;1.75;;;;;;;9.48;74.05;99370.56;5056613;28;20029;-72
2021/10/22 05:20:05;;;;;;;14.07;2.15;;;;;;;9.45;75.14;99371.06;5066881;28;20036;-72
2021/10/22 05:22:30;;;;;;;12.77;2.50;;;;;;;9.32;76.92;99345.31;5055431;28;20098;-73
2021/10/22 05:24:56;;;;;;;15.45;2.28;;;;;;;9.46;76.65;99359.25;5077606;28;20032;-73
2021/10/22 05:27:22;;;;;;;14.38;3.30;;;;;;;9.29;76.48;99361.13;5058371;28;20044;-73
2021/10/22 05:29:48;;;;;;;16.08;2.28;;;;;;;9.37;76.95;99348.06;5050196;28;20020;-73
2021/10/22 05:32:13;;;;;;;15.13;2.55;;;;;;;9.29;77.29;99369.97;5062159;28;20485;-73
2021/10/22 05:34:39;;;;;;;14.98;2.60;;;;;;;9.35;76.89;99374.38;5070152;28;20047;-73
2021/10/22 05:37:04;;;;;;;18.70;2.47;;;;;;;9.42;77.18;99370.72;5042962;28;20182;-73
2021/10/22 05:39:30;;;;;;;14.70;2.60;;;;;;;9.35;78.40;99371.69;5072543;28;20619;-73
2021/10/22 05:41:56;;;;;;;14.45;2.75;;;;;;;9.40;78.66;99364.78;5054638;28;20036;-72
2021/10/22 05:44:23;;;;;;;19.73;3.38;;;;;;;9.36;78.95;99364.47;5052435;28;20040;-72
2021/10/22 05:46:53;;;;;;;13.85;2.75;;;;;;;9.42;78.63;99360.78;5051450;28;20037;-71
2021/10/22 05:49:22;;;;;;;15.07;3.05;;;;;;;9.51;78.40;99363.88;5052366;28;20039;-71
2021/10/22 05:51:48;;;;;;;16.10;2.90;;;;;;;9.56;78.47;99363.16;5065891;28;20216;-71
2021/10/22 05:54:14;;;;;;;13.20;2.97;;;;;;;9.42;78.72;99357.28;5049661;28;20047;-73
2021/10/22 05:56:40;;;;;;;13.15;3.75;;;;;;;9.53;77.84;99369.81;5060409;28;20032;-72
2021/10/22 05:59:06;;;;;;;17.05;3.30;;;;;;;9.66;78.44;99368.69;5061052;28;20033;-71
2021/10/22 06:01:32;;;;;;;16.42;3.10;;;;;;;9.56;78.39;99371.22;5060643;28;20089;-72
2021/10/22 06:03:57;;;;;;;13.10;3.22;;;;;;;9.64;78.00;99362.75;5060029;28;20036;-72
2021/10/22 06:06:23;;;;;;;15.05;3.33;;;;;;;9.76;77.97;99362.66;5058988;28;20112;-73
2021/10/22 06:08:50;;;;;;;22.45;3.20;;;;;;;9.65;78.50;99365.16;5058868;28;20037;-73
2021/10/22 06:11:16;;;;;;;18.70;3.33;;;;;;;9.69;78.26;99365.50;5062015;28;20506;-72
2021/10/22 06:13:42;;;;;;;16.90;3.15;;;;;;;9.49;79.52;99355.25;5062180;28;20051;-72
2021/10/22 06:16:09;;;;;;;15.93;2.38;;;;;;;9.56;78.54;99360.47;5074777;28;20109;-72
2021/10/22 06:18:44;;;;;;;9.48;2.38;;;;;;;9.88;77.16;99354.47;5048286;28;20110;-72
2021/10/22 06:21:18;;;;;;;12.20;2.50;;;;;;;9.60;77.91;99372.34;5059610;28;20033;-72
2021/10/22 06:24:02;;;;;;;14.23;2.05;;;;;;;9.45;78.14;99365.69;5056996;28;20355;-72
2021/10/22 06:26:32;;;;;;;13.98;2.10;;;;;;;9.74;77.73;99373.66;5037414;28;20044;-71
2021/10/22 06:28:59;;;;;;;8.35;1.90;;;;;;;9.84;77.07;99377.56;5054122;28;20509;-71
2021/10/22 06:31:25;;;;;;;19.17;2.90;;;;;;;9.77;77.73;99393.88;5063314;28;20497;-71
2021/10/22 06:33:52;;;;;;;13.55;2.50;;;;;;;9.72;77.85;99407.22;5058605;28;20028;-72
2021/10/22 06:36:18;;;;;;;14.13;2.47;;;;;;;9.80;78.28;99414.91;5058151;28;20029;-72
2021/10/22 06:38:43;;;;;;;13.07;1.95;;;;;;;9.85;78.07;99419.53;5060989;28;20033;-72
2021/10/22 06:41:09;;;;;;;14.73;2.58;;;;;;;9.75;78.34;99417.50;5053367;28;20040;-72
2021/10/22 06:43:39;;;;;;;7.47;1.75;;;;;;;9.80;79.03;99428.34;5048750;28;20528;-72
2021/10/22 06:46:07;;;;;;;9.40;1.90;;;;;;;10.23;77.25;99434.91;5052818;28;20033;-72
2021/10/22 06:48:38;;;;;;;8.30;1.98;;;;;;;9.87;78.75;99437.06;5060079;28;20410;-71
2021/10/22 06:51:10;;;;;;;6.68;1.75;;;;;;;9.91;78.48;99438.22;5058698;28;20021;-72
2021/10/22 06:53:36;;;;;;;7.78;1.40;;;;;;;9.87;78.61;99436.25;5062098;28;20036;-72
2021/10/22 06:56:04;;;;;;;11.48;2.60;;;;;;;9.92;77.52;99447.06;5060693;28;20035;-72
2021/10/22 06:58:29;;;;;;;6.30;1.75;;;;;;;9.72;78.20;99444.88;5061245;28;20102;-72
2021/10/22 07:00:55;;;;;;;9.40;1.67;;;;;;;9.89;77.97;99459.16;5058993;28;20127;-70
2021/10/22 07:03:26;;;;;;;8.70;1.90;;;;;;;9.99;77.38;99463.88;5061223;28;20068;-70
2021/10/22 07:08:26;;;;;;;12.88;2.20;;;;;;;10.02;76.97;99451.81;5055890;28;20074;-71
2021/10/22 07:10:52;;;;;;;8.98;1.38;;;;;;;10.14;77.20;99449.84;5063463;28;20045;-71
2021/10/22 07:13:18;;;;;;;11.68;1.50;;;;;;;10.10;76.82;99459.47;5055325;28;20036;-71
2021/10/22 07:15:44;;;;;;;7.25;1.55;;;;;;;10.24;77.13;99459.91;4708943;28;10000337;-71
2021/10/22 07:18:10;;;;;;;9.40;1.25;;;;;;;10.28;76.39;99473.72;5055777;28;20493;-71
2021/10/22 07:20:36;;;;;;;9.43;2.10;;;;;;;10.31;76.46;99487.47;5044264;28;20024;-72
2021/10/22 07:23:09;;;;;;;11.27;1.50;;;;;;;10.40;76.55;99494.09;5056315;28;20494;-71
2021/10/22 07:25:38;;;;;;;13.73;1.90;;;;;;;10.36;77.62;99495.63;5063996;28;20029;-72
2021/10/22 07:28:11;;;;;;;10.85;1.90;;;;;;;10.29;77.94;99491.50;5042998;28;20119;-75
2021/10/22 07:30:42;;;;;;;12.35;1.80;;;;;;;10.01;77.94;99498.59;5074022;28;20041;-72
2021/10/22 07:33:08;;;;;;;9.35;1.65;;;;;;;10.19;77.11;99509.13;5047195;28;20040;-72
2021/10/22 07:35:37;;;;;;;15.73;2.20;;;;;;;10.25;77.43;99500.06;5044799;28;20602;-72
2021/10/22 07:38:03;;;;;;;10.40;1.55;;;;;;;10.25;77.11;99501.94;5061103;28;20053;-72
2021/10/22 07:40:29;;;;;;;11.45;1.92;;;;;;;10.07;77.32;99503.00;5040783;28;20136;-73
2021/10/22 07:42:55;;;;;;;19.15;2.25;;;;;;;10.36;76.99;99510.97;5054549;28;20441;-73
2021/10/22 07:45:21;;;;;;;13.25;2.42;;;;;;;10.25;76.38;99526.97;5058539;28;20114;-72
2021/10/22 07:47:47;;;;;;;14.43;2.25;;;;;;;10.46;76.14;99524.63;5039214;28;20032;-73
2021/10/22 07:50:13;;;;;;;19.08;2.90;;;;;;;10.50;76.75;99538.38;5045394;28;20547;-73
2021/10/22 07:52:39;;;;;;;13.50;2.00;;;;;;;10.45;77.33;99536.44;5041424;28;20053;-72
2021/10/22 07:55:05;;;;;;;12.32;1.90;;;;;;;10.32;77.94;99536.75;5051885;28;20039;-73
2021/10/22 07:57:32;;;;;;;9.75;1.95;;;;;;;10.36;77.40;99536.00;5072378;28;20048;-73
2021/10/22 07:59:58;;;;;;;12.32;1.60;;;;;;;10.52;77.72;99547.03;5041612;28;20040;-73
2021/10/22 08:02:25;;;;;;;15.73;2.10;;;;;;;10.44;77.92;99537.50;5043973;28;20055;-73
2021/10/22 08:04:51;;;;;;;10.23;1.75;;;;;;;10.40;77.36;99531.78;5059315;28;20084;-73
2021/10/22 08:07:30;;;;;;;9.50;1.65;;;;;;;10.33;77.16;99531.13;5064727;28;20477;-73
2021/10/22 08:09:58;;;;;;;13.13;2.08;;;;;;;10.46;77.03;99542.63;5059948;28;20037;-73
2021/10/22 08:12:25;;;;;;;10.77;2.08;;;;;;;10.52;77.38;99547.03;5055353;28;20513;-73
2021/10/22 08:14:50;;;;;;;14.18;2.13;;;;;;;10.48;77.07;99546.72;5043332;28;20044;-73
2021/10/22 08:17:17;;;;;;;7.20;1.50;;;;;;;10.43;77.67;99548.50;5059523;28;20036;-73
2021/10/22 08:19:45;;;;;;;15.20;2.20;;;;;;;10.63;77.04;99569.56;5050291;28;20119;-72
2021/10/22 08:22:44;;;;;;;11.25;1.90;;;;;;;10.67;76.10;99559.91;5041550;28;20029;-72
2021/10/22 08:25:05;;;;;;;12.18;1.65;;;;;;;10.69;75.56;99573.97;5038624;28;20052;-72
2021/10/22 08:27:37;;;;;;;11.60;2.03;;;;;;;10.60;76.00;99591.59;5051486;28;20036;-72
2021/10/22 08:30:11;;;;;;;23.40;2.83;;;;;;;10.82;75.23;99580.88;5058684;28;20067;-73
2021/10/22 08:32:38;;;;;;;18.08;1.60;;;;;;;10.57;74.83;99582.13;5053802;28;20101;-72
2021/10/22 08:35:05;;;;;;;14.13;2.20;;;;;;;10.82;75.26;99586.28;5053328;28;20033;-72
2021/10/22 08:37:35;;;;;;;11.75;1.92;;;;;;;10.78;74.28;99601.31;5052230;28;20036;-72
2021/10/22 08:40:03;;;;;;;12.68;2.03;;;;;;;11.02;73.93;99603.78;5059906;28;20045;-72
2021/10/22 08:42:29;;;;;;;14.73;1.92;;;;;;;11.13;74.26;99600.97;5057707;28;20029;-72
2021/10/22 08:44:56;;;;;;;13.18;1.48;;;;;;;10.99;74.15;99594.31;5055075;28;20493;-73
2021/10/22 08:47:32;;;;;;;10.25;1.73;;;;;;;11.11;73.45;99608.47;5054066;28;20033;-73
2021/10/22 08:50:00;;;;;;;17.60;2.03;;;;;;;11.10;72.54;99616.84;5055975;28;20028;-74
2021/10/22 08:52:28;;;;;;;15.48;1.83;;;;;;;11.20;72.64;99619.66;5054812;28;20033;-73
2021/10/22 08:54:54;;;;;;;15.57;1.65;;;;;;;11.30;72.12;99628.94;5056662;28;20064;-73
2021/10/22 08:57:20;;;;;;;14.80;2.28;;;;;;;11.12;72.52;99636.25;5054023;28;20055;-73
2021/10/22 08:59:46;;;;;;;17.27;2.50;;;;;;;11.06;72.35;99634.56;5053867;28;20508;-73
2021/10/22 09:02:16;;;;;;;14.63;1.77;;;;;;;11.21;71.65;99642.03;5054612;28;20094;-73
2021/10/22 09:04:46;;;;;;;16.10;2.17;;;;;;;11.37;71.01;99643.06;5055350;28;20049;-73
2021/10/22 09:07:15;;;;;;;11.52;1.80;;;;;;;11.42;70.22;99643.91;5054774;28;20033;-73
2021/10/22 09:09:43;;;;;;;14.20;2.42;;;;;;;11.69;69.95;99637.78;5051871;28;20111;-73
2021/10/22 09:12:10;;;;;;;9.13;1.90;;;;;;;11.50;70.05;99644.56;5055448;28;20033;-73
2021/10/22 09:14:36;;;;;;;12.85;1.88;;;;;;;11.53;69.92;99654.88;5056699;28;20032;-73
2021/10/22 09:17:11;;;;;;;15.23;2.33;;;;;;;11.89;68.32;99647.19;5053446;28;20036;-73
2021/10/22 09:19:41;;;;;;;17.60;2.03;;;;;;;11.90;68.84;99654.19;5052845;28;20079;-72
2021/10/22 09:22:23;;;;;;;17.27;2.72;;;;;;;11.90;68.71;99667.69;5054155;28;20035;-73
2021/10/22 09:24:55;;;;;;;12.93;2.03;;;;;;;12.03;68.86;99665.69;5053644;28;20037;-74
2021/10/22 09:27:30;;;;;;;8.68;1.92;;;;;;;12.26;68.18;99673.50;5055897;28;20041;-73
2021/10/22 09:29:56;;;;;;;11.75;2.22;;;;;;;11.98;68.20;99671.81;5074260;28;20142;-75
2021/10/22 09:32:22;;;;;;;16.05;2.17;;;;;;;11.98;68.15;99672.66;5063683;28;20032;-72
2021/10/22 09:34:51;;;;;;;16.70;1.65;;;;;;;12.01;67.77;99668.63;5049690;28;20032;-72
2021/10/22 09:37:18;;;;;;;11.15;1.63;;;;;;;12.22;67.54;99683.19;5054836;28;20035;-73
2021/10/22 09:39:44;;;;;;;14.10;2.17;;;;;;;12.14;67.46;99678.22;5051009;28;20119;-72
2021/10/22 09:42:12;;;;;;;13.80;2.00;;;;;;;12.09;66.74;99683.56;5051372;28;20829;-73
2021/10/22 09:44:41;;;;;;;13.35;1.73;;;;;;;12.33;66.53;99689.47;5030203;28;20039;-72
2021/10/22 09:47:06;;;;;;;14.25;1.88;;;;;;;12.63;65.58;99684.59;5053849;28;20032;-72
2021/10/22 09:49:35;;;;;;;8.98;1.80;;;;;;;12.77;65.27;99691.22;5066314;28;20040;-72
2021/10/22 09:52:01;;;;;;;12.82;2.10;;;;;;;13.13;64.80;99683.34;5040587;28;20207;-72
2021/10/22 09:54:32;;;;;;;10.45;1.83;;;;;;;13.17;64.34;99697.19;5048432;28;20036;-72
2021/10/22 09:57:05;;;;;;;12.05;1.98;;;;;;;13.12;63.53;99689.03;5038617;28;20518;-72
2021/10/22 09:59:31;;;;;;;15.40;1.45;;;;;;;13.16;63.33;99695.53;5054142;28;20179;-72
2021/10/22 10:01:58;;;;;;;8.90;1.70;;;;;;;12.96;64.39;99696.22;5051501;28;20555;-73
2021/10/22 10:04:27;;;;;;;11.65;1.55;;;;;;;12.93;64.65;99711.06;5053481;28;20090;-74
2021/10/22 10:06:57;;;;;;;7.13;1.45;;;;;;;13.01;63.48;99709.75;5054140;28;20115;-74
2021/10/22 10:09:26;;;;;;;6.22;1.67;;;;;;;13.16;64.03;99709.06;5050774;28;20028;-74
2021/10/22 10:11:54;;;;;;;9.23;1.45;;;;;;;13.38;62.67;99714.34;5057902;28;20074;-72
2021/10/22 10:14:23;;;;;;;11.85;1.85;;;;;;;13.20;63.21;99717.47;5046781;28;20052;-73
2021/10/22 10:16:49;;;;;;;7.75;1.58;;;;;;;13.03;63.15;99718.44;5050097;28;20047;-72
2021/10/22 10:19:25;;;;;;;10.80;1.65;;;;;;;12.98;63.03;99715.69;5074411;28;20036;-73
2021/10/22 10:21:57;;;;;;;8.43;1.30;;;;;;;12.92;63.00;99720.25;5044640;28;20033;-71
2021/10/22 10:24:29;;;;;;;13.20;1.90;;;;;;;13.27;63.36;99729.69;5048983;28;20056;-72
2021/10/22 10:27:08;;;;;;;9.82;1.92;;;;;;;13.21;63.74;99719.09;5045919;28;20056;-72
2021/10/22 10:29:38;;;;;;;6.60;1.52;;;;;;;13.16;64.38;99728.78;5048173;28;20162;-73
2021/10/22 10:32:07;;;;;;;11.45;1.77;;;;;;;12.93;65.73;99738.09;5047108;28;20051;-73
2021/10/22 10:34:40;;;;;;;10.48;1.90;;;;;;;12.82;65.68;99734.50;5055223;28;20036;-74
2021/10/22 10:37:21;;;;;;;9.27;1.80;;;;;;;12.77;65.54;99734.44;5047226;28;20025;-76
2021/10/22 10:39:48;;;;;;;10.52;1.67;;;;;;;12.71;65.52;99738.19;5044099;28;20033;-74
2021/10/22 10:42:27;;;;;;;10.77;1.70;;;;;;;12.72;64.68;99739.81;5052988;28;20513;-73
2021/10/22 10:44:55;;;;;;;13.68;1.67;;;;;;;12.66;64.62;99752.47;5046362;28;20079;-71
2021/10/22 10:47:27;;;;;;;6.07;1.42;;;;;;;12.52;64.22;99762.88;5053600;28;20037;-72
2021/10/22 10:49:52;;;;;;;8.80;1.52;;;;;;;12.80;65.14;99771.78;5040581;28;20497;-73
2021/10/22 10:52:36;;;;;;;11.25;1.45;;;;;;;12.87;65.77;99775.06;5053412;28;20034;-75
2021/10/22 10:55:16;;;;;;;;;;;;;;;13.03;65.06;99772.50;5046165;28;20397;-75
2021/10/22 10:57:46;;;;;;;10.95;1.10;;;;;;;12.85;65.25;99785.34;5048486;28;19916;-74
2021/10/22 11:00:17;;;;;;;5.93;1.55;;;;;;;12.95;64.69;99790.03;5052927;28;20166;-74
2021/10/22 11:03:05;;;;;;;11.40;1.48;;;;;;;12.99;63.65;99791.16;5055588;28;20032;-76
2021/10/22 11:05:47;;;;;;;12.18;1.38;;;;;;;12.77;62.93;99793.91;5048131;28;20515;-76
2021/10/22 11:08:21;;;;;;;9.32;1.65;;;;;;;12.98;62.93;99796.78;5053383;28;20512;-76
2021/10/22 11:11:13;;;;;;;7.15;1.10;;;;;;;12.97;63.12;99796.00;5050581;28;20040;-77
2021/10/22 11:13:42;;;;;;;7.47;1.30;;;;;;;13.17;63.09;99799.94;5054168;28;20167;-74
2021/10/22 11:16:10;;;;;;;9.80;1.60;;;;;;;13.25;64.30;99810.28;5049404;28;20044;-74
2021/10/22 11:18:36;;;;;;;7.78;1.50;;;;;;;12.88;65.25;99821.84;5056471;28;20048;-74
2021/10/22 11:21:02;;;;;;;13.10;1.58;;;;;;;12.89;66.39;99826.19;5044142;28;20596;-76
2021/10/22 11:23:28;;;;;;;9.20;1.58;;;;;;;12.72;66.78;99831.69;5049437;28;20498;-76
2021/10/22 11:25:56;;;;;;;7.45;1.33;;;;;;;12.58;67.70;99834.00;5049786;28;20044;-75
2021/10/22 11:28:31;;;;;;;6.63;1.33;;;;;;;12.35;69.26;99848.56;5053687;28;20533;-75
2021/10/22 11:30:58;;;;;;;7.97;1.33;;;;;;;12.57;68.43;99845.88;5057672;28;20121;-74
2021/10/22 11:33:27;;;;;;;6.85;1.08;;;;;;;12.32;67.69;99851.78;5049689;28;20123;-74
2021/10/22 11:35:54;;;;;;;4.38;0.90;;;;;;;12.09;68.02;99853.66;5054712;28;20444;-75
2021/10/22 11:38:29;;;;;;;4.57;0.70;;;;;;;12.14;67.59;99853.72;5048651;28;20086;-75